sensor_id;sensor_type;location;lat;lon;timestamp;P1;durP1;ratioP1;P2;durP2;ratioP2
22614;SDS011;11474;50.790;0.298;2023-04-24T00:00:05;36.67;;;23.75;;
22614;SDS011;11474;50.790;0.298;2023-04-24T00:02:31;36.03;;;23.75;;
22614;SDS011;11474;50.790;0.298;2023-04-24T00:04:58;39.22;;;24.70;;
22614;SDS011;11474;50.790;0.298;2023-04-24T00:07:28;40.05;;;24.42;;
22614;SDS011;11474;50.790;0.298;2023-04-24T00:09:54;36.30;;;23.88;;
22614;SDS011;11474;50.790;0.298;2023-04-24T00:12:20;36.05;;;24.35;;
22614;SDS011;11474;50.790;0.298;2023-04-24T00:14:46;38.42;;;25.42;;
22614;SDS011;11474;50.790;0.298;2023-04-24T00:17:12;38.88;;;25.45;;
22614;SDS011;11474;50.790;0.298;2023-04-24T00:19:38;39.15;;;25.60;;
22614;SDS011;11474;50.790;0.298;2023-04-24T00:22:04;38.15;;;24.77;;
22614;SDS011;11474;50.790;0.298;2023-04-24T00:24:31;38.22;;;25.50;;
22614;SDS011;11474;50.790;0.298;2023-04-24T00:26:57;37.22;;;25.75;;
22614;SDS011;11474;50.790;0.298;2023-04-24T00:29:23;41.55;;;26.38;;
22614;SDS011;11474;50.790;0.298;2023-04-24T00:31:49;39.70;;;25.02;;
22614;SDS011;11474;50.790;0.298;2023-04-24T00:34:15;40.97;;;25.73;;
22614;SDS011;11474;50.790;0.298;2023-04-24T00:36:41;40.63;;;26.05;;
22614;SDS011;11474;50.790;0.298;2023-04-24T00:39:07;41.88;;;26.17;;
22614;SDS011;11474;50.790;0.298;2023-04-24T00:41:33;42.00;;;25.60;;
22614;SDS011;11474;50.790;0.298;2023-04-24T00:44:00;40.17;;;25.50;;
22614;SDS011;11474;50.790;0.298;2023-04-24T00:46:26;39.95;;;26.80;;
22614;SDS011;11474;50.790;0.298;2023-04-24T00:48:52;41.05;;;26.65;;
22614;SDS011;11474;50.790;0.298;2023-04-24T00:51:18;41.03;;;25.83;;
22614;SDS011;11474;50.790;0.298;2023-04-24T00:53:44;45.25;;;26.08;;
22614;SDS011;11474;50.790;0.298;2023-04-24T00:56:10;43.92;;;27.50;;
22614;SDS011;11474;50.790;0.298;2023-04-24T00:58:37;39.97;;;26.80;;
22614;SDS011;11474;50.790;0.298;2023-04-24T01:01:03;40.00;;;26.33;;
22614;SDS011;11474;50.790;0.298;2023-04-24T01:03:32;40.45;;;27.42;;
22614;SDS011;11474;50.790;0.298;2023-04-24T01:05:59;42.38;;;27.00;;
22614;SDS011;11474;50.790;0.298;2023-04-24T01:08:25;40.00;;;26.52;;
22614;SDS011;11474;50.790;0.298;2023-04-24T01:10:52;40.10;;;25.30;;
22614;SDS011;11474;50.790;0.298;2023-04-24T01:13:18;40.15;;;26.60;;
22614;SDS011;11474;50.790;0.298;2023-04-24T01:15:45;41.92;;;26.35;;
22614;SDS011;11474;50.790;0.298;2023-04-24T01:18:12;41.33;;;25.90;;
22614;SDS011;11474;50.790;0.298;2023-04-24T01:20:41;41.17;;;25.75;;
22614;SDS011;11474;50.790;0.298;2023-04-24T01:23:08;41.08;;;26.58;;
22614;SDS011;11474;50.790;0.298;2023-04-24T01:25:35;40.35;;;25.08;;
22614;SDS011;11474;50.790;0.298;2023-04-24T01:28:02;42.03;;;26.10;;
22614;SDS011;11474;50.790;0.298;2023-04-24T01:30:28;39.30;;;24.87;;
22614;SDS011;11474;50.790;0.298;2023-04-24T01:32:54;39.22;;;24.98;;
22614;SDS011;11474;50.790;0.298;2023-04-24T01:35:21;39.08;;;24.65;;
22614;SDS011;11474;50.790;0.298;2023-04-24T01:37:47;40.10;;;25.50;;
22614;SDS011;11474;50.790;0.298;2023-04-24T01:40:13;39.88;;;25.88;;
22614;SDS011;11474;50.790;0.298;2023-04-24T01:42:40;42.70;;;25.70;;
22614;SDS011;11474;50.790;0.298;2023-04-24T01:45:07;40.80;;;25.92;;
22614;SDS011;11474;50.790;0.298;2023-04-24T01:47:35;42.08;;;24.80;;
22614;SDS011;11474;50.790;0.298;2023-04-24T01:50:02;36.85;;;24.05;;
22614;SDS011;11474;50.790;0.298;2023-04-24T01:52:29;39.08;;;24.80;;
22614;SDS011;11474;50.790;0.298;2023-04-24T01:54:56;39.87;;;25.20;;
22614;SDS011;11474;50.790;0.298;2023-04-24T01:57:22;35.30;;;23.85;;
22614;SDS011;11474;50.790;0.298;2023-04-24T01:59:50;38.70;;;23.73;;
22614;SDS011;11474;50.790;0.298;2023-04-24T02:02:16;38.25;;;25.08;;
22614;SDS011;11474;50.790;0.298;2023-04-24T02:04:43;36.88;;;24.55;;
22614;SDS011;11474;50.790;0.298;2023-04-24T02:07:09;36.60;;;23.92;;
22614;SDS011;11474;50.790;0.298;2023-04-24T02:09:35;37.97;;;24.70;;
22614;SDS011;11474;50.790;0.298;2023-04-24T02:12:01;38.30;;;23.77;;
22614;SDS011;11474;50.790;0.298;2023-04-24T02:14:27;35.70;;;22.73;;
22614;SDS011;11474;50.790;0.298;2023-04-24T02:16:53;34.05;;;23.65;;
22614;SDS011;11474;50.790;0.298;2023-04-24T02:19:19;37.30;;;23.20;;
22614;SDS011;11474;50.790;0.298;2023-04-24T02:21:45;36.25;;;23.67;;
22614;SDS011;11474;50.790;0.298;2023-04-24T02:24:11;37.83;;;24.43;;
22614;SDS011;11474;50.790;0.298;2023-04-24T02:26:37;34.42;;;22.67;;
22614;SDS011;11474;50.790;0.298;2023-04-24T02:29:03;39.78;;;24.00;;
22614;SDS011;11474;50.790;0.298;2023-04-24T02:31:30;38.03;;;23.65;;
22614;SDS011;11474;50.790;0.298;2023-04-24T02:33:56;36.50;;;24.27;;
22614;SDS011;11474;50.790;0.298;2023-04-24T02:36:22;37.63;;;23.00;;
22614;SDS011;11474;50.790;0.298;2023-04-24T02:38:48;38.55;;;24.83;;
22614;SDS011;11474;50.790;0.298;2023-04-24T02:41:14;39.85;;;24.70;;
22614;SDS011;11474;50.790;0.298;2023-04-24T02:43:40;35.53;;;23.45;;
22614;SDS011;11474;50.790;0.298;2023-04-24T02:46:06;36.45;;;23.58;;
22614;SDS011;11474;50.790;0.298;2023-04-24T02:48:32;38.23;;;25.23;;
22614;SDS011;11474;50.790;0.298;2023-04-24T02:50:58;39.30;;;24.25;;
22614;SDS011;11474;50.790;0.298;2023-04-24T02:53:24;39.75;;;24.98;;
22614;SDS011;11474;50.790;0.298;2023-04-24T02:55:51;36.97;;;23.83;;
22614;SDS011;11474;50.790;0.298;2023-04-24T02:58:17;35.03;;;23.65;;
22614;SDS011;11474;50.790;0.298;2023-04-24T03:00:45;39.67;;;24.48;;
22614;SDS011;11474;50.790;0.298;2023-04-24T03:03:12;35.58;;;23.58;;
22614;SDS011;11474;50.790;0.298;2023-04-24T03:05:38;35.30;;;23.77;;
22614;SDS011;11474;50.790;0.298;2023-04-24T03:08:04;35.20;;;22.58;;
22614;SDS011;11474;50.790;0.298;2023-04-24T03:10:31;33.67;;;22.58;;
22614;SDS011;11474;50.790;0.298;2023-04-24T03:12:57;36.50;;;22.43;;
22614;SDS011;11474;50.790;0.298;2023-04-24T03:15:23;35.33;;;23.25;;
22614;SDS011;11474;50.790;0.298;2023-04-24T03:17:49;37.03;;;23.33;;
22614;SDS011;11474;50.790;0.298;2023-04-24T03:20:15;35.55;;;22.75;;
22614;SDS011;11474;50.790;0.298;2023-04-24T03:22:41;35.67;;;23.38;;
22614;SDS011;11474;50.790;0.298;2023-04-24T03:25:08;33.10;;;23.05;;
22614;SDS011;11474;50.790;0.298;2023-04-24T03:27:34;37.10;;;22.83;;
22614;SDS011;11474;50.790;0.298;2023-04-24T03:30:00;35.63;;;21.83;;
22614;SDS011;11474;50.790;0.298;2023-04-24T03:32:27;35.47;;;22.63;;
22614;SDS011;11474;50.790;0.298;2023-04-24T03:34:53;33.83;;;22.00;;
22614;SDS011;11474;50.790;0.298;2023-04-24T03:37:19;35.15;;;23.15;;
22614;SDS011;11474;50.790;0.298;2023-04-24T03:39:45;34.58;;;22.40;;
22614;SDS011;11474;50.790;0.298;2023-04-24T03:42:11;34.22;;;22.17;;
22614;SDS011;11474;50.790;0.298;2023-04-24T03:44:37;33.88;;;22.05;;
22614;SDS011;11474;50.790;0.298;2023-04-24T03:47:03;36.75;;;23.10;;
22614;SDS011;11474;50.790;0.298;2023-04-24T03:49:29;35.72;;;21.73;;
22614;SDS011;11474;50.790;0.298;2023-04-24T03:51:55;34.30;;;21.87;;
22614;SDS011;11474;50.790;0.298;2023-04-24T03:54:21;33.45;;;22.15;;
22614;SDS011;11474;50.790;0.298;2023-04-24T03:56:47;33.28;;;21.83;;
22614;SDS011;11474;50.790;0.298;2023-04-24T03:59:13;35.88;;;23.52;;
22614;SDS011;11474;50.790;0.298;2023-04-24T04:01:39;33.60;;;21.80;;
22614;SDS011;11474;50.790;0.298;2023-04-24T04:04:06;35.53;;;22.42;;
22614;SDS011;11474;50.790;0.298;2023-04-24T04:06:33;31.48;;;21.25;;
22614;SDS011;11474;50.790;0.298;2023-04-24T04:08:59;31.83;;;21.38;;
22614;SDS011;11474;50.790;0.298;2023-04-24T04:11:25;32.35;;;21.60;;
22614;SDS011;11474;50.790;0.298;2023-04-24T04:13:52;29.98;;;21.05;;
22614;SDS011;11474;50.790;0.298;2023-04-24T04:16:18;33.42;;;21.17;;
22614;SDS011;11474;50.790;0.298;2023-04-24T04:18:44;37.08;;;21.55;;
22614;SDS011;11474;50.790;0.298;2023-04-24T04:21:10;35.58;;;22.33;;
22614;SDS011;11474;50.790;0.298;2023-04-24T04:23:36;32.20;;;21.60;;
22614;SDS011;11474;50.790;0.298;2023-04-24T04:26:03;31.05;;;20.27;;
22614;SDS011;11474;50.790;0.298;2023-04-24T04:28:30;33.70;;;21.83;;
22614;SDS011;11474;50.790;0.298;2023-04-24T04:30:56;31.95;;;21.38;;
22614;SDS011;11474;50.790;0.298;2023-04-24T04:33:26;31.77;;;21.83;;
22614;SDS011;11474;50.790;0.298;2023-04-24T04:35:52;34.17;;;21.27;;
22614;SDS011;11474;50.790;0.298;2023-04-24T04:38:18;33.28;;;22.42;;
22614;SDS011;11474;50.790;0.298;2023-04-24T04:40:45;34.03;;;21.80;;
22614;SDS011;11474;50.790;0.298;2023-04-24T04:43:11;35.83;;;21.77;;
22614;SDS011;11474;50.790;0.298;2023-04-24T04:45:40;34.23;;;22.13;;
22614;SDS011;11474;50.790;0.298;2023-04-24T04:48:08;30.95;;;21.83;;
22614;SDS011;11474;50.790;0.298;2023-04-24T04:50:37;35.67;;;22.33;;
22614;SDS011;11474;50.790;0.298;2023-04-24T04:53:03;33.15;;;21.52;;
22614;SDS011;11474;50.790;0.298;2023-04-24T04:55:30;31.63;;;21.88;;
22614;SDS011;11474;50.790;0.298;2023-04-24T04:57:56;34.05;;;21.52;;
22614;SDS011;11474;50.790;0.298;2023-04-24T05:00:22;32.35;;;20.90;;
22614;SDS011;11474;50.790;0.298;2023-04-24T05:02:52;32.28;;;21.67;;
22614;SDS011;11474;50.790;0.298;2023-04-24T05:05:18;34.83;;;21.42;;
22614;SDS011;11474;50.790;0.298;2023-04-24T05:07:44;30.60;;;21.20;;
22614;SDS011;11474;50.790;0.298;2023-04-24T05:10:10;31.05;;;21.52;;
22614;SDS011;11474;50.790;0.298;2023-04-24T05:12:36;33.45;;;20.85;;
22614;SDS011;11474;50.790;0.298;2023-04-24T05:15:03;30.38;;;20.08;;
22614;SDS011;11474;50.790;0.298;2023-04-24T05:17:29;29.33;;;20.50;;
22614;SDS011;11474;50.790;0.298;2023-04-24T05:19:55;32.55;;;20.40;;
22614;SDS011;11474;50.790;0.298;2023-04-24T05:22:21;30.13;;;19.67;;
22614;SDS011;11474;50.790;0.298;2023-04-24T05:24:48;31.08;;;20.88;;
22614;SDS011;11474;50.790;0.298;2023-04-24T05:27:15;32.65;;;21.40;;
22614;SDS011;11474;50.790;0.298;2023-04-24T05:29:41;33.35;;;20.77;;
22614;SDS011;11474;50.790;0.298;2023-04-24T05:32:07;30.70;;;20.25;;
22614;SDS011;11474;50.790;0.298;2023-04-24T05:34:33;31.95;;;20.52;;
22614;SDS011;11474;50.790;0.298;2023-04-24T05:36:59;30.52;;;20.35;;
22614;SDS011;11474;50.790;0.298;2023-04-24T05:39:25;29.02;;;20.00;;
22614;SDS011;11474;50.790;0.298;2023-04-24T05:41:51;32.53;;;20.42;;
22614;SDS011;11474;50.790;0.298;2023-04-24T05:44:17;30.67;;;19.35;;
22614;SDS011;11474;50.790;0.298;2023-04-24T05:46:43;30.00;;;18.83;;
22614;SDS011;11474;50.790;0.298;2023-04-24T05:49:09;28.55;;;19.33;;
22614;SDS011;11474;50.790;0.298;2023-04-24T05:51:35;28.10;;;18.05;;
22614;SDS011;11474;50.790;0.298;2023-04-24T05:54:01;28.35;;;18.63;;
22614;SDS011;11474;50.790;0.298;2023-04-24T05:56:28;27.83;;;18.88;;
22614;SDS011;11474;50.790;0.298;2023-04-24T05:58:54;29.70;;;18.50;;
22614;SDS011;11474;50.790;0.298;2023-04-24T06:01:20;28.60;;;18.80;;
22614;SDS011;11474;50.790;0.298;2023-04-24T06:03:46;27.13;;;17.17;;
22614;SDS011;11474;50.790;0.298;2023-04-24T06:06:13;26.53;;;17.97;;
22614;SDS011;11474;50.790;0.298;2023-04-24T06:08:40;26.48;;;17.70;;
22614;SDS011;11474;50.790;0.298;2023-04-24T06:11:09;21.73;;;15.85;;
22614;SDS011;11474;50.790;0.298;2023-04-24T06:13:35;25.30;;;16.15;;
22614;SDS011;11474;50.790;0.298;2023-04-24T06:16:01;25.45;;;15.18;;
22614;SDS011;11474;50.790;0.298;2023-04-24T06:18:27;24.40;;;15.75;;
22614;SDS011;11474;50.790;0.298;2023-04-24T06:20:54;25.13;;;15.50;;
22614;SDS011;11474;50.790;0.298;2023-04-24T06:23:20;27.35;;;16.00;;
22614;SDS011;11474;50.790;0.298;2023-04-24T06:25:46;24.30;;;15.07;;
22614;SDS011;11474;50.790;0.298;2023-04-24T06:28:12;22.85;;;15.05;;
22614;SDS011;11474;50.790;0.298;2023-04-24T06:30:38;22.23;;;14.40;;
22614;SDS011;11474;50.790;0.298;2023-04-24T06:33:04;25.42;;;15.70;;
22614;SDS011;11474;50.790;0.298;2023-04-24T06:35:30;22.20;;;14.95;;
22614;SDS011;11474;50.790;0.298;2023-04-24T06:37:56;22.73;;;14.70;;
22614;SDS011;11474;50.790;0.298;2023-04-24T06:40:22;22.42;;;14.65;;
22614;SDS011;11474;50.790;0.298;2023-04-24T06:42:49;25.40;;;15.03;;
22614;SDS011;11474;50.790;0.298;2023-04-24T06:45:15;22.73;;;14.30;;
22614;SDS011;11474;50.790;0.298;2023-04-24T06:47:41;19.97;;;14.47;;
22614;SDS011;11474;50.790;0.298;2023-04-24T06:50:07;23.63;;;14.40;;
22614;SDS011;11474;50.790;0.298;2023-04-24T06:52:33;21.27;;;13.65;;
22614;SDS011;11474;50.790;0.298;2023-04-24T06:55:03;22.30;;;14.00;;
22614;SDS011;11474;50.790;0.298;2023-04-24T06:57:29;25.13;;;14.30;;
22614;SDS011;11474;50.790;0.298;2023-04-24T06:59:56;21.92;;;13.73;;
22614;SDS011;11474;50.790;0.298;2023-04-24T07:02:22;24.15;;;14.75;;
22614;SDS011;11474;50.790;0.298;2023-04-24T07:04:48;22.88;;;14.05;;
22614;SDS011;11474;50.790;0.298;2023-04-24T07:07:14;23.48;;;14.95;;
22614;SDS011;11474;50.790;0.298;2023-04-24T07:09:41;24.20;;;14.57;;
22614;SDS011;11474;50.790;0.298;2023-04-24T07:12:10;25.33;;;15.07;;
22614;SDS011;11474;50.790;0.298;2023-04-24T07:14:37;24.50;;;15.73;;
22614;SDS011;11474;50.790;0.298;2023-04-24T07:17:03;23.70;;;15.02;;
22614;SDS011;11474;50.790;0.298;2023-04-24T07:19:30;22.43;;;14.80;;
22614;SDS011;11474;50.790;0.298;2023-04-24T07:21:56;25.10;;;15.95;;
22614;SDS011;11474;50.790;0.298;2023-04-24T07:24:24;23.83;;;14.85;;
22614;SDS011;11474;50.790;0.298;2023-04-24T07:26:51;26.45;;;15.75;;
22614;SDS011;11474;50.790;0.298;2023-04-24T07:29:17;22.50;;;15.13;;
22614;SDS011;11474;50.790;0.298;2023-04-24T07:31:43;25.70;;;15.38;;
22614;SDS011;11474;50.790;0.298;2023-04-24T07:34:09;23.52;;;15.98;;
22614;SDS011;11474;50.790;0.298;2023-04-24T07:36:35;24.40;;;15.98;;
22614;SDS011;11474;50.790;0.298;2023-04-24T07:39:03;27.13;;;15.68;;
22614;SDS011;11474;50.790;0.298;2023-04-24T07:41:29;26.10;;;15.20;;
22614;SDS011;11474;50.790;0.298;2023-04-24T07:43:55;23.00;;;15.05;;
22614;SDS011;11474;50.790;0.298;2023-04-24T07:46:21;24.20;;;15.23;;
22614;SDS011;11474;50.790;0.298;2023-04-24T07:48:48;23.90;;;16.08;;
22614;SDS011;11474;50.790;0.298;2023-04-24T07:51:15;23.63;;;14.80;;
22614;SDS011;11474;50.790;0.298;2023-04-24T07:53:41;26.23;;;16.52;;
22614;SDS011;11474;50.790;0.298;2023-04-24T07:56:07;22.67;;;16.15;;
22614;SDS011;11474;50.790;0.298;2023-04-24T07:58:33;21.48;;;15.35;;
22614;SDS011;11474;50.790;0.298;2023-04-24T08:00:59;25.13;;;15.27;;
22614;SDS011;11474;50.790;0.298;2023-04-24T08:03:25;23.63;;;14.98;;
22614;SDS011;11474;50.790;0.298;2023-04-24T08:05:51;23.70;;;14.18;;
22614;SDS011;11474;50.790;0.298;2023-04-24T08:08:21;26.30;;;14.52;;
22614;SDS011;11474;50.790;0.298;2023-04-24T08:10:47;24.83;;;15.05;;
22614;SDS011;11474;50.790;0.298;2023-04-24T08:13:14;22.67;;;14.23;;
22614;SDS011;11474;50.790;0.298;2023-04-24T08:15:40;26.15;;;15.55;;
22614;SDS011;11474;50.790;0.298;2023-04-24T08:18:06;25.90;;;15.32;;
22614;SDS011;11474;50.790;0.298;2023-04-24T08:20:32;23.50;;;14.80;;
22614;SDS011;11474;50.790;0.298;2023-04-24T08:22:58;27.27;;;14.57;;
22614;SDS011;11474;50.790;0.298;2023-04-24T08:25:25;22.67;;;13.55;;
22614;SDS011;11474;50.790;0.298;2023-04-24T08:27:51;24.33;;;14.33;;
22614;SDS011;11474;50.790;0.298;2023-04-24T08:30:17;22.38;;;14.32;;
22614;SDS011;11474;50.790;0.298;2023-04-24T08:32:44;21.30;;;14.00;;
22614;SDS011;11474;50.790;0.298;2023-04-24T08:35:10;24.35;;;14.82;;
22614;SDS011;11474;50.790;0.298;2023-04-24T08:37:36;21.15;;;13.00;;
22614;SDS011;11474;50.790;0.298;2023-04-24T08:40:06;20.40;;;12.75;;
22614;SDS011;11474;50.790;0.298;2023-04-24T08:42:37;19.83;;;12.75;;
22614;SDS011;11474;50.790;0.298;2023-04-24T08:45:04;19.63;;;12.60;;
22614;SDS011;11474;50.790;0.298;2023-04-24T08:47:31;21.85;;;12.95;;
22614;SDS011;11474;50.790;0.298;2023-04-24T08:49:58;21.60;;;13.88;;
22614;SDS011;11474;50.790;0.298;2023-04-24T08:52:27;19.48;;;12.60;;
22614;SDS011;11474;50.790;0.298;2023-04-24T08:54:54;19.92;;;12.55;;
22614;SDS011;11474;50.790;0.298;2023-04-24T08:57:20;20.85;;;11.63;;
22614;SDS011;11474;50.790;0.298;2023-04-24T08:59:47;18.85;;;11.75;;
22614;SDS011;11474;50.790;0.298;2023-04-24T09:02:13;21.83;;;12.88;;
22614;SDS011;11474;50.790;0.298;2023-04-24T09:04:40;18.40;;;11.93;;
22614;SDS011;11474;50.790;0.298;2023-04-24T09:07:06;19.07;;;11.73;;
22614;SDS011;11474;50.790;0.298;2023-04-24T09:09:33;18.35;;;11.55;;
22614;SDS011;11474;50.790;0.298;2023-04-24T09:12:00;18.20;;;11.43;;
22614;SDS011;11474;50.790;0.298;2023-04-24T09:14:27;18.75;;;11.23;;
22614;SDS011;11474;50.790;0.298;2023-04-24T09:16:53;18.70;;;11.50;;
22614;SDS011;11474;50.790;0.298;2023-04-24T09:19:19;18.40;;;11.68;;
22614;SDS011;11474;50.790;0.298;2023-04-24T09:21:46;17.60;;;11.52;;
22614;SDS011;11474;50.790;0.298;2023-04-24T09:24:17;19.03;;;11.40;;
22614;SDS011;11474;50.790;0.298;2023-04-24T09:26:43;17.60;;;11.48;;
22614;SDS011;11474;50.790;0.298;2023-04-24T09:29:14;16.80;;;11.00;;
22614;SDS011;11474;50.790;0.298;2023-04-24T09:31:40;21.47;;;11.83;;
22614;SDS011;11474;50.790;0.298;2023-04-24T09:34:06;18.98;;;11.57;;
22614;SDS011;11474;50.790;0.298;2023-04-24T09:36:33;19.20;;;12.50;;
22614;SDS011;11474;50.790;0.298;2023-04-24T09:39:02;21.65;;;13.48;;
22614;SDS011;11474;50.790;0.298;2023-04-24T09:41:29;22.17;;;13.73;;
22614;SDS011;11474;50.790;0.298;2023-04-24T09:43:55;22.27;;;13.48;;
22614;SDS011;11474;50.790;0.298;2023-04-24T09:46:29;25.27;;;15.68;;
22614;SDS011;11474;50.790;0.298;2023-04-24T09:48:55;22.08;;;12.90;;
22614;SDS011;11474;50.790;0.298;2023-04-24T09:51:34;19.40;;;12.85;;
22614;SDS011;11474;50.790;0.298;2023-04-24T09:54:02;19.98;;;12.88;;
22614;SDS011;11474;50.790;0.298;2023-04-24T09:56:29;21.45;;;12.43;;
22614;SDS011;11474;50.790;0.298;2023-04-24T09:59:07;20.63;;;12.27;;
22614;SDS011;11474;50.790;0.298;2023-04-24T10:01:33;18.80;;;11.95;;
22614;SDS011;11474;50.790;0.298;2023-04-24T10:04:00;19.63;;;12.00;;
22614;SDS011;11474;50.790;0.298;2023-04-24T10:06:35;20.47;;;12.20;;
22614;SDS011;11474;50.790;0.298;2023-04-24T10:09:02;18.10;;;11.20;;
22614;SDS011;11474;50.790;0.298;2023-04-24T10:11:28;18.30;;;10.23;;
22614;SDS011;11474;50.790;0.298;2023-04-24T10:13:55;18.13;;;10.68;;
22614;SDS011;11474;50.790;0.298;2023-04-24T10:16:22;17.02;;;10.35;;
22614;SDS011;11474;50.790;0.298;2023-04-24T10:18:48;16.23;;;9.45;;
22614;SDS011;11474;50.790;0.298;2023-04-24T10:21:15;15.85;;;8.93;;
22614;SDS011;11474;50.790;0.298;2023-04-24T10:23:42;14.05;;;8.80;;
22614;SDS011;11474;50.790;0.298;2023-04-24T10:26:09;17.15;;;9.23;;
22614;SDS011;11474;50.790;0.298;2023-04-24T10:28:35;16.10;;;9.48;;
22614;SDS011;11474;50.790;0.298;2023-04-24T10:31:02;17.00;;;9.40;;
22614;SDS011;11474;50.790;0.298;2023-04-24T10:33:29;15.90;;;9.32;;
22614;SDS011;11474;50.790;0.298;2023-04-24T10:35:56;15.63;;;9.05;;
22614;SDS011;11474;50.790;0.298;2023-04-24T10:38:24;13.75;;;9.23;;
22614;SDS011;11474;50.790;0.298;2023-04-24T10:40:51;15.77;;;9.40;;
22614;SDS011;11474;50.790;0.298;2023-04-24T10:43:17;14.02;;;9.02;;
22614;SDS011;11474;50.790;0.298;2023-04-24T10:45:59;15.85;;;9.48;;
22614;SDS011;11474;50.790;0.298;2023-04-24T10:48:26;13.50;;;8.63;;
22614;SDS011;11474;50.790;0.298;2023-04-24T10:50:53;13.32;;;8.25;;
22614;SDS011;11474;50.790;0.298;2023-04-24T10:53:22;14.98;;;7.70;;
22614;SDS011;11474;50.790;0.298;2023-04-24T10:58:24;14.55;;;8.35;;
22614;SDS011;11474;50.790;0.298;2023-04-24T11:00:57;14.27;;;8.20;;
22614;SDS011;11474;50.790;0.298;2023-04-24T11:03:28;17.10;;;7.97;;
22614;SDS011;11474;50.790;0.298;2023-04-24T11:08:24;12.63;;;7.47;;
22614;SDS011;11474;50.790;0.298;2023-04-24T11:11:10;18.65;;;7.68;;
22614;SDS011;11474;50.790;0.298;2023-04-24T11:18:51;20.10;;;9.75;;
22614;SDS011;11474;50.790;0.298;2023-04-24T11:21:19;22.02;;;10.75;;
22614;SDS011;11474;50.790;0.298;2023-04-24T11:23:46;12.93;;;8.13;;
22614;SDS011;11474;50.790;0.298;2023-04-24T11:26:12;15.03;;;7.50;;
22614;SDS011;11474;50.790;0.298;2023-04-24T11:28:48;16.58;;;8.10;;
22614;SDS011;11474;50.790;0.298;2023-04-24T11:31:34;12.73;;;7.32;;
22614;SDS011;11474;50.790;0.298;2023-04-24T11:34:11;15.70;;;8.35;;
22614;SDS011;11474;50.790;0.298;2023-04-24T11:36:38;14.75;;;7.22;;
22614;SDS011;11474;50.790;0.298;2023-04-24T11:39:04;13.90;;;7.40;;
22614;SDS011;11474;50.790;0.298;2023-04-24T11:41:31;11.90;;;5.30;;
22614;SDS011;11474;50.790;0.298;2023-04-24T11:43:57;13.30;;;5.60;;
22614;SDS011;11474;50.790;0.298;2023-04-24T11:46:26;9.95;;;4.85;;
22614;SDS011;11474;50.790;0.298;2023-04-24T11:48:52;13.70;;;6.78;;
22614;SDS011;11474;50.790;0.298;2023-04-24T11:51:18;10.50;;;6.28;;
22614;SDS011;11474;50.790;0.298;2023-04-24T11:53:45;11.90;;;6.55;;
22614;SDS011;11474;50.790;0.298;2023-04-24T11:56:11;14.35;;;6.65;;
22614;SDS011;11474;50.790;0.298;2023-04-24T11:58:40;11.03;;;6.83;;
22614;SDS011;11474;50.790;0.298;2023-04-24T12:01:06;12.10;;;6.60;;
22614;SDS011;11474;50.790;0.298;2023-04-24T12:03:32;11.63;;;6.22;;
22614;SDS011;11474;50.790;0.298;2023-04-24T12:06:08;11.35;;;5.97;;
22614;SDS011;11474;50.790;0.298;2023-04-24T12:08:34;12.80;;;6.15;;
22614;SDS011;11474;50.790;0.298;2023-04-24T12:11:00;10.57;;;5.43;;
22614;SDS011;11474;50.790;0.298;2023-04-24T12:13:27;12.27;;;5.50;;
22614;SDS011;11474;50.790;0.298;2023-04-24T12:15:53;9.77;;;5.13;;
22614;SDS011;11474;50.790;0.298;2023-04-24T12:18:21;13.75;;;6.15;;
22614;SDS011;11474;50.790;0.298;2023-04-24T12:20:48;9.73;;;5.75;;
22614;SDS011;11474;50.790;0.298;2023-04-24T12:23:14;12.10;;;5.40;;
22614;SDS011;11474;50.790;0.298;2023-04-24T12:25:40;11.20;;;5.45;;
22614;SDS011;11474;50.790;0.298;2023-04-24T12:30:39;11.35;;;5.32;;
22614;SDS011;11474;50.790;0.298;2023-04-24T12:33:05;10.80;;;5.35;;
22614;SDS011;11474;50.790;0.298;2023-04-24T12:35:32;11.65;;;5.10;;
22614;SDS011;11474;50.790;0.298;2023-04-24T12:40:33;10.73;;;5.78;;
22614;SDS011;11474;50.790;0.298;2023-04-24T12:42:59;13.73;;;6.63;;
22614;SDS011;11474;50.790;0.298;2023-04-24T12:45:25;9.45;;;5.20;;
22614;SDS011;11474;50.790;0.298;2023-04-24T12:47:53;15.27;;;6.15;;
22614;SDS011;11474;50.790;0.298;2023-04-24T12:50:19;13.00;;;5.90;;
22614;SDS011;11474;50.790;0.298;2023-04-24T12:52:45;13.85;;;5.22;;
22614;SDS011;11474;50.790;0.298;2023-04-24T12:55:11;12.30;;;5.82;;
22614;SDS011;11474;50.790;0.298;2023-04-24T12:57:38;11.82;;;5.82;;
22614;SDS011;11474;50.790;0.298;2023-04-24T13:00:05;14.63;;;6.00;;
22614;SDS011;11474;50.790;0.298;2023-04-24T13:02:32;13.20;;;6.45;;
22614;SDS011;11474;50.790;0.298;2023-04-24T13:04:58;10.90;;;5.93;;
22614;SDS011;11474;50.790;0.298;2023-04-24T13:07:25;12.37;;;6.17;;
22614;SDS011;11474;50.790;0.298;2023-04-24T13:09:52;11.25;;;6.15;;
22614;SDS011;11474;50.790;0.298;2023-04-24T13:12:18;12.70;;;5.82;;
22614;SDS011;11474;50.790;0.298;2023-04-24T13:14:45;12.45;;;6.20;;
22614;SDS011;11474;50.790;0.298;2023-04-24T13:17:11;13.88;;;6.53;;
22614;SDS011;11474;50.790;0.298;2023-04-24T13:19:38;11.30;;;6.00;;
22614;SDS011;11474;50.790;0.298;2023-04-24T13:22:05;14.18;;;5.75;;
22614;SDS011;11474;50.790;0.298;2023-04-24T13:24:31;9.90;;;5.00;;
22614;SDS011;11474;50.790;0.298;2023-04-24T13:26:58;11.75;;;5.07;;
22614;SDS011;11474;50.790;0.298;2023-04-24T13:29:25;14.27;;;5.63;;
22614;SDS011;11474;50.790;0.298;2023-04-24T13:31:51;9.18;;;4.55;;
22614;SDS011;11474;50.790;0.298;2023-04-24T13:34:19;11.02;;;4.45;;
22614;SDS011;11474;50.790;0.298;2023-04-24T13:36:45;9.93;;;4.63;;
22614;SDS011;11474;50.790;0.298;2023-04-24T13:39:12;10.35;;;4.40;;
22614;SDS011;11474;50.790;0.298;2023-04-24T13:41:38;12.98;;;5.03;;
22614;SDS011;11474;50.790;0.298;2023-04-24T13:44:04;11.10;;;5.10;;
22614;SDS011;11474;50.790;0.298;2023-04-24T13:46:31;9.70;;;4.75;;
22614;SDS011;11474;50.790;0.298;2023-04-24T13:48:57;10.10;;;4.97;;
22614;SDS011;11474;50.790;0.298;2023-04-24T13:51:25;11.95;;;5.78;;
22614;SDS011;11474;50.790;0.298;2023-04-24T13:53:54;12.18;;;5.30;;
22614;SDS011;11474;50.790;0.298;2023-04-24T13:56:20;12.93;;;5.15;;
22614;SDS011;11474;50.790;0.298;2023-04-24T13:58:47;12.55;;;5.18;;
22614;SDS011;11474;50.790;0.298;2023-04-24T14:01:13;8.32;;;4.40;;
22614;SDS011;11474;50.790;0.298;2023-04-24T14:03:41;13.10;;;4.63;;
22614;SDS011;11474;50.790;0.298;2023-04-24T14:06:08;15.85;;;4.70;;
22614;SDS011;11474;50.790;0.298;2023-04-24T14:08:34;12.48;;;4.70;;
22614;SDS011;11474;50.790;0.298;2023-04-24T14:11:00;10.25;;;4.05;;
22614;SDS011;11474;50.790;0.298;2023-04-24T14:13:27;11.10;;;4.53;;
22614;SDS011;11474;50.790;0.298;2023-04-24T14:15:54;15.20;;;4.50;;
22614;SDS011;11474;50.790;0.298;2023-04-24T14:18:20;9.80;;;4.03;;
22614;SDS011;11474;50.790;0.298;2023-04-24T14:20:46;13.43;;;4.47;;
22614;SDS011;11474;50.790;0.298;2023-04-24T14:23:12;13.82;;;4.90;;
22614;SDS011;11474;50.790;0.298;2023-04-24T14:25:38;14.25;;;4.50;;
22614;SDS011;11474;50.790;0.298;2023-04-24T14:28:05;14.10;;;5.05;;
22614;SDS011;11474;50.790;0.298;2023-04-24T14:30:32;12.80;;;4.53;;
22614;SDS011;11474;50.790;0.298;2023-04-24T14:32:58;16.95;;;4.82;;
22614;SDS011;11474;50.790;0.298;2023-04-24T14:35:24;13.77;;;4.38;;
22614;SDS011;11474;50.790;0.298;2023-04-24T14:37:50;13.52;;;4.22;;